sensor_id;sensor_type;location;lat;lon;timestamp;P1;durP1;ratioP1;P2;durP2;ratioP2
10343;SDS011;5217;43.960;10.954;2023-06-04T00:01:09;3.35;;;3.10;;
10343;SDS011;5217;43.960;10.954;2023-06-04T00:03:42;4.00;;;3.50;;
10343;SDS011;5217;43.960;10.954;2023-06-04T00:06:11;3.75;;;3.40;;
10343;SDS011;5217;43.960;10.954;2023-06-04T00:08:39;4.07;;;3.65;;
10343;SDS011;5217;43.960;10.954;2023-06-04T00:11:07;3.80;;;3.42;;
10343;SDS011;5217;43.960;10.954;2023-06-04T00:13:36;3.92;;;3.33;;
10343;SDS011;5217;43.960;10.954;2023-06-04T00:16:04;4.15;;;3.40;;
10343;SDS011;5217;43.960;10.954;2023-06-04T00:18:34;4.38;;;3.55;;
10343;SDS011;5217;43.960;10.954;2023-06-04T00:21:03;4.18;;;3.50;;
10343;SDS011;5217;43.960;10.954;2023-06-04T00:23:31;3.75;;;3.45;;
10343;SDS011;5217;43.960;10.954;2023-06-04T00:26:00;3.97;;;3.65;;
10343;SDS011;5217;43.960;10.954;2023-06-04T00:28:28;3.63;;;3.33;;
10343;SDS011;5217;43.960;10.954;2023-06-04T00:30:57;5.38;;;3.45;;
10343;SDS011;5217;43.960;10.954;2023-06-04T00:33:25;3.88;;;3.42;;
10343;SDS011;5217;43.960;10.954;2023-06-04T00:35:55;3.70;;;3.40;;
10343;SDS011;5217;43.960;10.954;2023-06-04T00:38:23;3.72;;;3.42;;
10343;SDS011;5217;43.960;10.954;2023-06-04T00:40:52;3.75;;;3.42;;
10343;SDS011;5217;43.960;10.954;2023-06-04T00:43:20;3.85;;;3.55;;
10343;SDS011;5217;43.960;10.954;2023-06-04T00:45:51;4.28;;;3.88;;
10343;SDS011;5217;43.960;10.954;2023-06-04T00:48:20;3.97;;;3.67;;
10343;SDS011;5217;43.960;10.954;2023-06-04T00:50:49;6.97;;;3.72;;
10343;SDS011;5217;43.960;10.954;2023-06-04T00:53:20;4.15;;;3.75;;
10343;SDS011;5217;43.960;10.954;2023-06-04T00:55:50;4.40;;;4.00;;
10343;SDS011;5217;43.960;10.954;2023-06-04T00:58:19;4.13;;;3.75;;
10343;SDS011;5217;43.960;10.954;2023-06-04T01:00:47;4.25;;;3.85;;
10343;SDS011;5217;43.960;10.954;2023-06-04T01:03:17;4.10;;;3.70;;
10343;SDS011;5217;43.960;10.954;2023-06-04T01:05:48;4.10;;;3.80;;
10343;SDS011;5217;43.960;10.954;2023-06-04T01:08:27;4.10;;;3.70;;
10343;SDS011;5217;43.960;10.954;2023-06-04T01:10:56;4.43;;;4.03;;
10343;SDS011;5217;43.960;10.954;2023-06-04T01:13:25;4.10;;;3.80;;
10343;SDS011;5217;43.960;10.954;2023-06-04T01:15:53;4.20;;;3.80;;
10343;SDS011;5217;43.960;10.954;2023-06-04T01:18:23;3.88;;;3.45;;
10343;SDS011;5217;43.960;10.954;2023-06-04T01:20:56;3.92;;;3.58;;
10343;SDS011;5217;43.960;10.954;2023-06-04T01:23:31;4.20;;;3.80;;
10343;SDS011;5217;43.960;10.954;2023-06-04T01:26:05;4.10;;;3.78;;
10343;SDS011;5217;43.960;10.954;2023-06-04T01:28:34;3.70;;;3.40;;
10343;SDS011;5217;43.960;10.954;2023-06-04T01:31:03;6.60;;;3.60;;
10343;SDS011;5217;43.960;10.954;2023-06-04T01:33:34;3.75;;;3.30;;
10343;SDS011;5217;43.960;10.954;2023-06-04T01:36:03;3.72;;;3.42;;
10343;SDS011;5217;43.960;10.954;2023-06-04T01:38:33;3.75;;;3.42;;
10343;SDS011;5217;43.960;10.954;2023-06-04T01:41:02;4.47;;;3.55;;
10343;SDS011;5217;43.960;10.954;2023-06-04T01:43:31;3.65;;;3.35;;
10343;SDS011;5217;43.960;10.954;2023-06-04T01:46:01;4.75;;;3.60;;
10343;SDS011;5217;43.960;10.954;2023-06-04T01:48:30;3.63;;;3.33;;
10343;SDS011;5217;43.960;10.954;2023-06-04T01:50:59;3.97;;;3.67;;
10343;SDS011;5217;43.960;10.954;2023-06-04T01:53:28;3.85;;;3.50;;
10343;SDS011;5217;43.960;10.954;2023-06-04T01:55:58;4.05;;;3.70;;
10343;SDS011;5217;43.960;10.954;2023-06-04T01:58:27;3.72;;;3.42;;
10343;SDS011;5217;43.960;10.954;2023-06-04T02:00:58;4.00;;;3.70;;
10343;SDS011;5217;43.960;10.954;2023-06-04T02:03:29;5.15;;;4.00;;
10343;SDS011;5217;43.960;10.954;2023-06-04T02:06:03;4.05;;;3.70;;
10343;SDS011;5217;43.960;10.954;2023-06-04T02:08:34;4.25;;;3.80;;
10343;SDS011;5217;43.960;10.954;2023-06-04T02:11:04;4.55;;;4.13;;
10343;SDS011;5217;43.960;10.954;2023-06-04T02:13:32;5.18;;;3.90;;
10343;SDS011;5217;43.960;10.954;2023-06-04T02:16:02;5.00;;;3.95;;
10343;SDS011;5217;43.960;10.954;2023-06-04T02:18:30;4.20;;;3.80;;
10343;SDS011;5217;43.960;10.954;2023-06-04T02:20:59;4.15;;;3.63;;
10343;SDS011;5217;43.960;10.954;2023-06-04T02:23:27;4.63;;;3.85;;
10343;SDS011;5217;43.960;10.954;2023-06-04T02:25:56;4.50;;;4.10;;
10343;SDS011;5217;43.960;10.954;2023-06-04T02:28:26;4.55;;;4.07;;
10343;SDS011;5217;43.960;10.954;2023-06-04T02:30:54;4.20;;;3.80;;
10343;SDS011;5217;43.960;10.954;2023-06-04T02:33:22;4.28;;;3.90;;
10343;SDS011;5217;43.960;10.954;2023-06-04T02:35:51;4.20;;;3.90;;
10343;SDS011;5217;43.960;10.954;2023-06-04T02:38:19;3.95;;;3.60;;
10343;SDS011;5217;43.960;10.954;2023-06-04T02:40:47;4.32;;;3.92;;
10343;SDS011;5217;43.960;10.954;2023-06-04T02:43:16;4.85;;;3.92;;
10343;SDS011;5217;43.960;10.954;2023-06-04T02:45:46;4.70;;;4.30;;
10343;SDS011;5217;43.960;10.954;2023-06-04T02:48:14;3.83;;;3.53;;
10343;SDS011;5217;43.960;10.954;2023-06-04T02:50:42;4.25;;;3.95;;
10343;SDS011;5217;43.960;10.954;2023-06-04T02:53:11;4.38;;;3.97;;
10343;SDS011;5217;43.960;10.954;2023-06-04T02:55:39;4.30;;;3.80;;
10343;SDS011;5217;43.960;10.954;2023-06-04T02:58:08;4.68;;;4.28;;
10343;SDS011;5217;43.960;10.954;2023-06-04T03:00:37;4.15;;;3.72;;
10343;SDS011;5217;43.960;10.954;2023-06-04T03:03:08;4.50;;;4.10;;
10343;SDS011;5217;43.960;10.954;2023-06-04T03:05:36;3.88;;;3.50;;
10343;SDS011;5217;43.960;10.954;2023-06-04T03:08:06;4.43;;;4.03;;
10343;SDS011;5217;43.960;10.954;2023-06-04T03:10:34;4.45;;;4.10;;
10343;SDS011;5217;43.960;10.954;2023-06-04T03:13:03;4.90;;;4.50;;
10343;SDS011;5217;43.960;10.954;2023-06-04T03:15:31;4.30;;;3.90;;
10343;SDS011;5217;43.960;10.954;2023-06-04T03:18:00;4.45;;;4.07;;
10343;SDS011;5217;43.960;10.954;2023-06-04T03:20:30;4.13;;;3.83;;
10343;SDS011;5217;43.960;10.954;2023-06-04T03:23:05;4.00;;;3.70;;
10343;SDS011;5217;43.960;10.954;2023-06-04T03:25:33;6.07;;;4.10;;
10343;SDS011;5217;43.960;10.954;2023-06-04T03:28:01;4.85;;;4.40;;
10343;SDS011;5217;43.960;10.954;2023-06-04T03:30:30;4.18;;;3.88;;
10343;SDS011;5217;43.960;10.954;2023-06-04T03:32:58;4.78;;;3.90;;
10343;SDS011;5217;43.960;10.954;2023-06-04T03:35:27;5.07;;;3.90;;
10343;SDS011;5217;43.960;10.954;2023-06-04T03:37:57;4.15;;;3.75;;
10343;SDS011;5217;43.960;10.954;2023-06-04T03:40:25;3.80;;;3.50;;
10343;SDS011;5217;43.960;10.954;2023-06-04T03:42:53;4.15;;;3.80;;
10343;SDS011;5217;43.960;10.954;2023-06-04T03:45:22;4.05;;;3.75;;
10343;SDS011;5217;43.960;10.954;2023-06-04T03:47:50;6.38;;;3.72;;
10343;SDS011;5217;43.960;10.954;2023-06-04T03:50:19;4.18;;;3.70;;
10343;SDS011;5217;43.960;10.954;2023-06-04T03:52:47;4.10;;;3.80;;
10343;SDS011;5217;43.960;10.954;2023-06-04T03:55:17;3.83;;;3.50;;
10343;SDS011;5217;43.960;10.954;2023-06-04T03:57:46;3.80;;;3.50;;
10343;SDS011;5217;43.960;10.954;2023-06-04T04:00:14;4.88;;;3.78;;
10343;SDS011;5217;43.960;10.954;2023-06-04T04:02:43;4.45;;;3.90;;
10343;SDS011;5217;43.960;10.954;2023-06-04T04:05:12;3.95;;;3.63;;
10343;SDS011;5217;43.960;10.954;2023-06-04T04:07:42;3.85;;;3.55;;
10343;SDS011;5217;43.960;10.954;2023-06-04T04:10:11;4.85;;;3.80;;
10343;SDS011;5217;43.960;10.954;2023-06-04T04:12:41;3.78;;;3.47;;
10343;SDS011;5217;43.960;10.954;2023-06-04T04:15:09;3.95;;;3.65;;
10343;SDS011;5217;43.960;10.954;2023-06-04T04:17:37;4.72;;;3.70;;
10343;SDS011;5217;43.960;10.954;2023-06-04T04:20:06;3.35;;;3.10;;
10343;SDS011;5217;43.960;10.954;2023-06-04T04:22:35;3.72;;;3.35;;
10343;SDS011;5217;43.960;10.954;2023-06-04T04:25:07;3.75;;;3.45;;
10343;SDS011;5217;43.960;10.954;2023-06-04T04:27:36;3.78;;;3.47;;
10343;SDS011;5217;43.960;10.954;2023-06-04T04:30:09;4.20;;;3.80;;
10343;SDS011;5217;43.960;10.954;2023-06-04T04:32:40;4.40;;;3.70;;
10343;SDS011;5217;43.960;10.954;2023-06-04T04:35:15;3.65;;;3.35;;
10343;SDS011;5217;43.960;10.954;2023-06-04T04:37:44;4.13;;;3.72;;
10343;SDS011;5217;43.960;10.954;2023-06-04T04:40:13;4.20;;;3.83;;
10343;SDS011;5217;43.960;10.954;2023-06-04T04:42:42;3.90;;;3.60;;
10343;SDS011;5217;43.960;10.954;2023-06-04T04:45:11;3.72;;;3.42;;
10343;SDS011;5217;43.960;10.954;2023-06-04T04:47:40;4.18;;;3.70;;
10343;SDS011;5217;43.960;10.954;2023-06-04T04:50:09;4.07;;;3.78;;
10343;SDS011;5217;43.960;10.954;2023-06-04T04:52:37;3.90;;;3.60;;
10343;SDS011;5217;43.960;10.954;2023-06-04T04:55:06;4.13;;;3.72;;
10343;SDS011;5217;43.960;10.954;2023-06-04T04:57:35;3.90;;;3.60;;
10343;SDS011;5217;43.960;10.954;2023-06-04T05:00:06;4.10;;;3.80;;
10343;SDS011;5217;43.960;10.954;2023-06-04T05:02:37;4.25;;;3.95;;
10343;SDS011;5217;43.960;10.954;2023-06-04T05:05:06;4.28;;;3.97;;
10343;SDS011;5217;43.960;10.954;2023-06-04T05:07:37;5.00;;;4.07;;
10343;SDS011;5217;43.960;10.954;2023-06-04T05:10:06;5.20;;;3.95;;
10343;SDS011;5217;43.960;10.954;2023-06-04T05:12:34;5.25;;;4.18;;
10343;SDS011;5217;43.960;10.954;2023-06-04T05:15:03;5.88;;;4.30;;
10343;SDS011;5217;43.960;10.954;2023-06-04T05:17:32;5.88;;;4.38;;
10343;SDS011;5217;43.960;10.954;2023-06-04T05:20:04;5.20;;;4.60;;
10343;SDS011;5217;43.960;10.954;2023-06-04T05:22:33;5.07;;;4.68;;
10343;SDS011;5217;43.960;10.954;2023-06-04T05:25:03;4.65;;;4.25;;
10343;SDS011;5217;43.960;10.954;2023-06-04T05:27:32;7.32;;;6.63;;
10343;SDS011;5217;43.960;10.954;2023-06-04T05:30:01;8.32;;;7.53;;
10343;SDS011;5217;43.960;10.954;2023-06-04T05:32:30;9.35;;;7.75;;
10343;SDS011;5217;43.960;10.954;2023-06-04T05:34:59;8.88;;;7.97;;
10343;SDS011;5217;43.960;10.954;2023-06-04T05:37:32;10.70;;;8.55;;
10343;SDS011;5217;43.960;10.954;2023-06-04T05:40:01;10.25;;;8.63;;
10343;SDS011;5217;43.960;10.954;2023-06-04T05:42:31;11.05;;;8.48;;
10343;SDS011;5217;43.960;10.954;2023-06-04T05:45:00;9.20;;;8.30;;
10343;SDS011;5217;43.960;10.954;2023-06-04T05:47:28;9.13;;;8.00;;
10343;SDS011;5217;43.960;10.954;2023-06-04T05:49:57;8.25;;;7.38;;
10343;SDS011;5217;43.960;10.954;2023-06-04T05:52:26;8.75;;;7.82;;
10343;SDS011;5217;43.960;10.954;2023-06-04T05:54:56;8.68;;;7.65;;
10343;SDS011;5217;43.960;10.954;2023-06-04T05:57:24;8.65;;;7.18;;
10343;SDS011;5217;43.960;10.954;2023-06-04T05:59:52;7.93;;;6.95;;
10343;SDS011;5217;43.960;10.954;2023-06-04T06:02:21;8.77;;;7.88;;
10343;SDS011;5217;43.960;10.954;2023-06-04T06:04:49;8.45;;;7.60;;
10343;SDS011;5217;43.960;10.954;2023-06-04T06:07:18;8.55;;;7.75;;
10343;SDS011;5217;43.960;10.954;2023-06-04T06:09:46;7.68;;;6.88;;
10343;SDS011;5217;43.960;10.954;2023-06-04T06:12:16;7.88;;;7.13;;
10343;SDS011;5217;43.960;10.954;2023-06-04T06:14:44;8.63;;;7.55;;
10343;SDS011;5217;43.960;10.954;2023-06-04T06:17:12;7.80;;;7.00;;
10343;SDS011;5217;43.960;10.954;2023-06-04T06:19:41;7.68;;;6.63;;
10343;SDS011;5217;43.960;10.954;2023-06-04T06:22:09;10.15;;;7.70;;
10343;SDS011;5217;43.960;10.954;2023-06-04T06:24:39;9.65;;;8.65;;
10343;SDS011;5217;43.960;10.954;2023-06-04T06:27:07;9.68;;;8.77;;
10343;SDS011;5217;43.960;10.954;2023-06-04T06:29:37;9.93;;;8.95;;
10343;SDS011;5217;43.960;10.954;2023-06-04T06:32:07;10.18;;;9.10;;
10343;SDS011;5217;43.960;10.954;2023-06-04T06:34:36;9.50;;;8.60;;
10343;SDS011;5217;43.960;10.954;2023-06-04T06:37:05;9.25;;;8.35;;
10343;SDS011;5217;43.960;10.954;2023-06-04T06:39:34;9.05;;;8.25;;
10343;SDS011;5217;43.960;10.954;2023-06-04T06:42:02;7.90;;;7.20;;
10343;SDS011;5217;43.960;10.954;2023-06-04T06:44:31;10.02;;;8.98;;
10343;SDS011;5217;43.960;10.954;2023-06-04T06:47:01;9.98;;;9.05;;
10343;SDS011;5217;43.960;10.954;2023-06-04T06:49:29;8.75;;;7.47;;
10343;SDS011;5217;43.960;10.954;2023-06-04T06:51:58;8.65;;;7.72;;
10343;SDS011;5217;43.960;10.954;2023-06-04T06:54:26;10.43;;;9.43;;
10343;SDS011;5217;43.960;10.954;2023-06-04T06:56:54;13.07;;;11.77;;
10343;SDS011;5217;43.960;10.954;2023-06-04T06:59:24;13.23;;;12.02;;
10343;SDS011;5217;43.960;10.954;2023-06-04T07:01:52;19.35;;;15.68;;
10343;SDS011;5217;43.960;10.954;2023-06-04T07:04:22;18.75;;;16.60;;
10343;SDS011;5217;43.960;10.954;2023-06-04T07:06:51;20.58;;;17.95;;
10343;SDS011;5217;43.960;10.954;2023-06-04T07:09:19;31.63;;;26.27;;
10343;SDS011;5217;43.960;10.954;2023-06-04T07:11:48;34.30;;;30.40;;
10343;SDS011;5217;43.960;10.954;2023-06-04T07:14:16;31.15;;;27.23;;
10343;SDS011;5217;43.960;10.954;2023-06-04T07:16:45;22.95;;;20.55;;
10343;SDS011;5217;43.960;10.954;2023-06-04T07:19:13;18.80;;;16.90;;
10343;SDS011;5217;43.960;10.954;2023-06-04T07:21:43;16.65;;;14.90;;
10343;SDS011;5217;43.960;10.954;2023-06-04T07:24:11;16.15;;;14.55;;
10343;SDS011;5217;43.960;10.954;2023-06-04T07:26:40;12.88;;;11.57;;
10343;SDS011;5217;43.960;10.954;2023-06-04T07:29:08;10.40;;;9.40;;
10343;SDS011;5217;43.960;10.954;2023-06-04T07:31:37;8.48;;;7.65;;
10343;SDS011;5217;43.960;10.954;2023-06-04T07:34:05;8.20;;;7.40;;
10343;SDS011;5217;43.960;10.954;2023-06-04T07:36:33;8.77;;;7.22;;
10343;SDS011;5217;43.960;10.954;2023-06-04T07:39:04;10.65;;;9.65;;
10343;SDS011;5217;43.960;10.954;2023-06-04T07:41:32;10.63;;;9.60;;
10343;SDS011;5217;43.960;10.954;2023-06-04T07:44:01;15.23;;;12.23;;
10343;SDS011;5217;43.960;10.954;2023-06-04T07:46:29;13.18;;;11.57;;
10343;SDS011;5217;43.960;10.954;2023-06-04T07:48:57;13.13;;;10.65;;
10343;SDS011;5217;43.960;10.954;2023-06-04T07:51:26;11.13;;;9.65;;
10343;SDS011;5217;43.960;10.954;2023-06-04T07:53:54;10.00;;;8.90;;
10343;SDS011;5217;43.960;10.954;2023-06-04T07:56:24;10.65;;;7.72;;
10343;SDS011;5217;43.960;10.954;2023-06-04T07:58:53;8.35;;;7.53;;
10343;SDS011;5217;43.960;10.954;2023-06-04T08:01:21;8.57;;;7.80;;
10343;SDS011;5217;43.960;10.954;2023-06-04T08:03:50;8.00;;;7.15;;
10343;SDS011;5217;43.960;10.954;2023-06-04T08:06:19;8.48;;;6.82;;
10343;SDS011;5217;43.960;10.954;2023-06-04T08:08:47;7.78;;;6.70;;
10343;SDS011;5217;43.960;10.954;2023-06-04T08:11:16;7.18;;;6.30;;
10343;SDS011;5217;43.960;10.954;2023-06-04T08:13:46;8.52;;;7.18;;
10343;SDS011;5217;43.960;10.954;2023-06-04T08:16:14;7.72;;;6.50;;
10343;SDS011;5217;43.960;10.954;2023-06-04T08:18:43;6.68;;;6.03;;
10343;SDS011;5217;43.960;10.954;2023-06-04T08:21:11;7.30;;;6.35;;
10343;SDS011;5217;43.960;10.954;2023-06-04T08:23:43;6.75;;;6.15;;
10343;SDS011;5217;43.960;10.954;2023-06-04T08:26:11;7.88;;;6.75;;
10343;SDS011;5217;43.960;10.954;2023-06-04T08:28:40;7.97;;;7.10;;
10343;SDS011;5217;43.960;10.954;2023-06-04T08:31:09;8.70;;;7.35;;
10343;SDS011;5217;43.960;10.954;2023-06-04T08:33:38;8.60;;;7.20;;
10343;SDS011;5217;43.960;10.954;2023-06-04T08:36:06;11.68;;;8.52;;
10343;SDS011;5217;43.960;10.954;2023-06-04T08:38:35;8.30;;;7.45;;
10343;SDS011;5217;43.960;10.954;2023-06-04T08:41:05;8.32;;;7.53;;
10343;SDS011;5217;43.960;10.954;2023-06-04T08:43:39;8.05;;;6.93;;
10343;SDS011;5217;43.960;10.954;2023-06-04T08:46:11;8.27;;;6.72;;
10343;SDS011;5217;43.960;10.954;2023-06-04T08:48:41;8.23;;;6.30;;
10343;SDS011;5217;43.960;10.954;2023-06-04T08:51:09;6.07;;;5.30;;
10343;SDS011;5217;43.960;10.954;2023-06-04T08:53:40;6.20;;;5.60;;
10343;SDS011;5217;43.960;10.954;2023-06-04T08:56:14;5.40;;;4.90;;
10343;SDS011;5217;43.960;10.954;2023-06-04T08:58:43;6.45;;;5.85;;
10343;SDS011;5217;43.960;10.954;2023-06-04T09:01:17;6.03;;;5.35;;
10343;SDS011;5217;43.960;10.954;2023-06-04T09:03:46;6.45;;;5.80;;
10343;SDS011;5217;43.960;10.954;2023-06-04T09:06:15;7.07;;;5.45;;
10343;SDS011;5217;43.960;10.954;2023-06-04T09:08:43;9.52;;;5.45;;
10343;SDS011;5217;43.960;10.954;2023-06-04T09:11:23;6.13;;;5.50;;
10343;SDS011;5217;43.960;10.954;2023-06-04T09:13:59;6.60;;;5.43;;
10343;SDS011;5217;43.960;10.954;2023-06-04T09:16:33;7.03;;;6.10;;
10343;SDS011;5217;43.960;10.954;2023-06-04T09:19:10;7.28;;;5.70;;
10343;SDS011;5217;43.960;10.954;2023-06-04T09:21:51;7.22;;;5.97;;
10343;SDS011;5217;43.960;10.954;2023-06-04T09:24:22;6.95;;;6.25;;
10343;SDS011;5217;43.960;10.954;2023-06-04T09:26:51;7.47;;;6.63;;
10343;SDS011;5217;43.960;10.954;2023-06-04T09:29:20;7.82;;;5.90;;
10343;SDS011;5217;43.960;10.954;2023-06-04T09:31:58;7.40;;;6.35;;
10343;SDS011;5217;43.960;10.954;2023-06-04T09:34:27;6.40;;;5.80;;
10343;SDS011;5217;43.960;10.954;2023-06-04T09:36:56;6.10;;;5.50;;
10343;SDS011;5217;43.960;10.954;2023-06-04T09:39:25;7.57;;;5.78;;
10343;SDS011;5217;43.960;10.954;2023-06-04T09:41:57;9.35;;;6.35;;
10343;SDS011;5217;43.960;10.954;2023-06-04T09:44:26;6.30;;;5.43;;
10343;SDS011;5217;43.960;10.954;2023-06-04T09:46:58;5.65;;;5.05;;
10343;SDS011;5217;43.960;10.954;2023-06-04T09:49:27;5.45;;;4.63;;
10343;SDS011;5217;43.960;10.954;2023-06-04T09:51:55;7.53;;;5.40;;
10343;SDS011;5217;43.960;10.954;2023-06-04T09:54:24;6.28;;;5.53;;
10343;SDS011;5217;43.960;10.954;2023-06-04T09:57:03;6.40;;;5.25;;
10343;SDS011;5217;43.960;10.954;2023-06-04T09:59:32;5.72;;;4.82;;
10343;SDS011;5217;43.960;10.954;2023-06-04T10:02:08;5.55;;;5.00;;
10343;SDS011;5217;43.960;10.954;2023-06-04T10:04:39;6.90;;;5.30;;
10343;SDS011;5217;43.960;10.954;2023-06-04T10:07:10;7.00;;;5.00;;
10343;SDS011;5217;43.960;10.954;2023-06-04T10:09:39;6.22;;;5.00;;
10343;SDS011;5217;43.960;10.954;2023-06-04T10:12:13;5.13;;;4.63;;
10343;SDS011;5217;43.960;10.954;2023-06-04T10:14:44;5.53;;;4.80;;
10343;SDS011;5217;43.960;10.954;2023-06-04T10:17:21;5.00;;;4.47;;
10343;SDS011;5217;43.960;10.954;2023-06-04T10:19:51;6.68;;;4.65;;
10343;SDS011;5217;43.960;10.954;2023-06-04T10:22:20;5.40;;;4.63;;
10343;SDS011;5217;43.960;10.954;2023-06-04T10:24:49;5.20;;;4.50;;
10343;SDS011;5217;43.960;10.954;2023-06-04T10:27:18;5.03;;;4.63;;
10343;SDS011;5217;43.960;10.954;2023-06-04T10:29:49;4.90;;;4.40;;
10343;SDS011;5217;43.960;10.954;2023-06-04T10:32:20;4.63;;;4.22;;
10343;SDS011;5217;43.960;10.954;2023-06-04T10:34:48;4.80;;;4.40;;
10343;SDS011;5217;43.960;10.954;2023-06-04T10:37:20;4.90;;;4.43;;
10343;SDS011;5217;43.960;10.954;2023-06-04T10:39:52;5.13;;;4.40;;
10343;SDS011;5217;43.960;10.954;2023-06-04T10:42:21;5.18;;;3.80;;
10343;SDS011;5217;43.960;10.954;2023-06-04T10:44:50;4.68;;;4.13;;
10343;SDS011;5217;43.960;10.954;2023-06-04T10:47:25;4.63;;;4.22;;
10343;SDS011;5217;43.960;10.954;2023-06-04T10:50:06;4.60;;;3.95;;
10343;SDS011;5217;43.960;10.954;2023-06-04T10:52:36;4.05;;;3.67;;
10343;SDS011;5217;43.960;10.954;2023-06-04T10:55:05;4.40;;;3.58;;
10343;SDS011;5217;43.960;10.954;2023-06-04T10:57:34;4.10;;;3.67;;
10343;SDS011;5217;43.960;10.954;2023-06-04T11:00:04;3.97;;;3.67;;
10343;SDS011;5217;43.960;10.954;2023-06-04T11:02:42;4.22;;;3.80;;
10343;SDS011;5217;43.960;10.954;2023-06-04T11:05:18;3.78;;;3.47;;
10343;SDS011;5217;43.960;10.954;2023-06-04T11:07:47;5.45;;;3.58;;
10343;SDS011;5217;43.960;10.954;2023-06-04T11:10:17;4.63;;;3.50;;
10343;SDS011;5217;43.960;10.954;2023-06-04T11:12:46;4.10;;;3.40;;
10343;SDS011;5217;43.960;10.954;2023-06-04T11:15:17;4.13;;;3.58;;
10343;SDS011;5217;43.960;10.954;2023-06-04T11:17:50;3.60;;;3.30;;
10343;SDS011;5217;43.960;10.954;2023-06-04T11:20:20;4.22;;;3.83;;
10343;SDS011;5217;43.960;10.954;2023-06-04T11:22:53;4.25;;;3.85;;
10343;SDS011;5217;43.960;10.954;2023-06-04T11:25:23;4.53;;;4.13;;
10343;SDS011;5217;43.960;10.954;2023-06-04T11:27:53;5.60;;;4.00;;
10343;SDS011;5217;43.960;10.954;2023-06-04T11:30:22;4.88;;;4.32;;
10343;SDS011;5217;43.960;10.954;2023-06-04T11:32:52;3.85;;;3.55;;
10343;SDS011;5217;43.960;10.954;2023-06-04T11:35:28;3.75;;;3.45;;
10343;SDS011;5217;43.960;10.954;2023-06-04T11:37:57;3.88;;;3.58;;
10343;SDS011;5217;43.960;10.954;2023-06-04T11:40:26;3.90;;;3.55;;
10343;SDS011;5217;43.960;10.954;2023-06-04T11:42:54;4.32;;;3.50;;
10343;SDS011;5217;43.960;10.954;2023-06-04T11:45:24;5.45;;;3.80;;
10343;SDS011;5217;43.960;10.954;2023-06-04T11:47:58;3.78;;;3.47;;
10343;SDS011;5217;43.960;10.954;2023-06-04T11:50:26;3.63;;;3.33;;
10343;SDS011;5217;43.960;10.954;2023-06-04T11:52:56;3.72;;;3.42;;
10343;SDS011;5217;43.960;10.954;2023-06-04T11:55:24;4.00;;;3.60;;
10343;SDS011;5217;43.960;10.954;2023-06-04T11:57:53;3.63;;;3.33;;
10343;SDS011;5217;43.960;10.954;2023-06-04T12:00:21;4.43;;;3.67;;
10343;SDS011;5217;43.960;10.954;2023-06-04T12:02:51;3.90;;;3.50;;
10343;SDS011;5217;43.960;10.954;2023-06-04T12:05:23;3.50;;;3.20;;
10343;SDS011;5217;43.960;10.954;2023-06-04T12:08:03;3.45;;;3.15;;
10343;SDS011;5217;43.960;10.954;2023-06-04T12:10:36;3.38;;;3.08;;
10343;SDS011;5217;43.960;10.954;2023-06-04T12:13:05;3.20;;;2.97;;
10343;SDS011;5217;43.960;10.954;2023-06-04T12:15:33;3.17;;;2.97;;
10343;SDS011;5217;43.960;10.954;2023-06-04T12:18:02;5.38;;;3.25;;
10343;SDS011;5217;43.960;10.954;2023-06-04T12:20:34;3.85;;;3.55;;
10343;SDS011;5217;43.960;10.954;2023-06-04T12:23:04;3.72;;;3.42;;
10343;SDS011;5217;43.960;10.954;2023-06-04T12:25:34;3.78;;;3.40;;
10343;SDS011;5217;43.960;10.954;2023-06-04T12:28:04;3.85;;;3.55;;
10343;SDS011;5217;43.960;10.954;2023-06-04T12:30:35;3.92;;;3.53;;
10343;SDS011;5217;43.960;10.954;2023-06-04T12:33:04;3.75;;;3.45;;
10343;SDS011;5217;43.960;10.954;2023-06-04T12:35:34;3.70;;;3.40;;
10343;SDS011;5217;43.960;10.954;2023-06-04T12:38:03;3.78;;;3.38;;
10343;SDS011;5217;43.960;10.954;2023-06-04T12:40:35;3.70;;;3.40;;
10343;SDS011;5217;43.960;10.954;2023-06-04T12:43:04;4.45;;;3.33;;
10343;SDS011;5217;43.960;10.954;2023-06-04T12:45:33;3.60;;;3.30;;
10343;SDS011;5217;43.960;10.954;2023-06-04T12:48:02;3.58;;;3.28;;
10343;SDS011;5217;43.960;10.954;2023-06-04T12:50:31;3.60;;;3.30;;
10343;SDS011;5217;43.960;10.954;2023-06-04T12:53:00;3.45;;;3.17;;
10343;SDS011;5217;43.960;10.954;2023-06-04T12:55:29;3.67;;;3.30;;
10343;SDS011;5217;43.960;10.954;2023-06-04T12:57:57;3.72;;;3.42;;
10343;SDS011;5217;43.960;10.954;2023-06-04T13:00:26;3.53;;;3.22;;
10343;SDS011;5217;43.960;10.954;2023-06-04T13:02:54;4.05;;;3.58;;
10343;SDS011;5217;43.960;10.954;2023-06-04T13:05:23;3.80;;;3.47;;
10343;SDS011;5217;43.960;10.954;2023-06-04T13:07:51;3.78;;;3.40;;
10343;SDS011;5217;43.960;10.954;2023-06-04T13:10:21;3.97;;;3.65;;
10343;SDS011;5217;43.960;10.954;2023-06-04T13:12:50;4.10;;;3.35;;
10343;SDS011;5217;43.960;10.954;2023-06-04T13:15:18;3.80;;;3.50;;
10343;SDS011;5217;43.960;10.954;2023-06-04T13:17:47;3.53;;;3.22;;
10343;SDS011;5217;43.960;10.954;2023-06-04T13:20:15;4.43;;;3.47;;
10343;SDS011;5217;43.960;10.954;2023-06-04T13:22:44;3.85;;;3.55;;
10343;SDS011;5217;43.960;10.954;2023-06-04T13:25:13;4.05;;;3.60;;
10343;SDS011;5217;43.960;10.954;2023-06-04T13:27:44;3.40;;;3.10;;
10343;SDS011;5217;43.960;10.954;2023-06-04T13:30:12;3.95;;;3.53;;
10343;SDS011;5217;43.960;10.954;2023-06-04T13:32:41;4.15;;;3.45;;
10343;SDS011;5217;43.960;10.954;2023-06-04T13:35:10;3.95;;;3.65;;
10343;SDS011;5217;43.960;10.954;2023-06-04T13:37:38;3.90;;;3.60;;
10343;SDS011;5217;43.960;10.954;2023-06-04T13:40:07;4.05;;;3.65;;
10343;SDS011;5217;43.960;10.954;2023-06-04T13:42:36;4.07;;;3.78;;
10343;SDS011;5217;43.960;10.954;2023-06-04T13:45:06;4.93;;;3.92;;
10343;SDS011;5217;43.960;10.954;2023-06-04T13:47:35;5.57;;;4.30;;
10343;SDS011;5217;43.960;10.954;2023-06-04T13:50:04;3.75;;;3.45;;
10343;SDS011;5217;43.960;10.954;2023-06-04T13:52:33;4.28;;;3.88;;
10343;SDS011;5217;43.960;10.954;2023-06-04T13:55:01;4.20;;;3.90;;
10343;SDS011;5217;43.960;10.954;2023-06-04T13:57:30;5.57;;;4.03;;
10343;SDS011;5217;43.960;10.954;2023-06-04T13:59:58;4.22;;;3.85;;
10343;SDS011;5217;43.960;10.954;2023-06-04T14:02:28;4.63;;;4.22;;
10343;SDS011;5217;43.960;10.954;2023-06-04T14:04:57;5.72;;;4.32;;
10343;SDS011;5217;43.960;10.954;2023-06-04T14:07:25;4.20;;;3.90;;
10343;SDS011;5217;43.960;10.954;2023-06-04T14:09:53;4.43;;;4.03;;
10343;SDS011;5217;43.960;10.954;2023-06-04T14:12:22;4.72;;;4.32;;
10343;SDS011;5217;43.960;10.954;2023-06-04T14:14:50;4.72;;;4.00;;
10343;SDS011;5217;43.960;10.954;2023-06-04T14:17:19;5.07;;;4.28;;
10343;SDS011;5217;43.960;10.954;2023-06-04T14:19:49;4.00;;;3.70;;
10343;SDS011;5217;43.960;10.954;2023-06-04T14:22:17;6.93;;;3.92;;
10343;SDS011;5217;43.960;10.954;2023-06-04T14:24:46;4.38;;;3.50;;
10343;SDS011;5217;43.960;10.954;2023-06-04T14:27:14;3.60;;;3.30;;
10343;SDS011;5217;43.960;10.954;2023-06-04T14:29:42;3.92;;;3.40;;
10343;SDS011;5217;43.960;10.954;2023-06-04T14:32:10;4.25;;;3.20;;
10343;SDS011;5217;43.960;10.954;2023-06-04T14:34:39;3.45;;;3.15;;
10343;SDS011;5217;43.960;10.954;2023-06-04T14:37:09;4.05;;;3.75;;
10343;SDS011;5217;43.960;10.954;2023-06-04T14:39:37;4.43;;;3.78;;
10343;SDS011;5217;43.960;10.954;2023-06-04T14:42:05;3.97;;;3.40;;
10343;SDS011;5217;43.960;10.954;2023-06-04T14:44:34;4.30;;;3.92;;
10343;SDS011;5217;43.960;10.954;2023-06-04T14:47:02;5.53;;;3.92;;
10343;SDS011;5217;43.960;10.954;2023-06-04T14:49:31;6.40;;;3.47;;
10343;SDS011;5217;43.960;10.954;2023-06-04T14:52:00;4.68;;;3.83;;
10343;SDS011;5217;43.960;10.954;2023-06-04T14:54:30;4.05;;;3.75;;
10343;SDS011;5217;43.960;10.954;2023-06-04T14:56:58;4.55;;;3.67;;
10343;SDS011;5217;43.960;10.954;2023-06-04T14:59:27;4.85;;;3.65;;